BLADE21 EFTP-EFOU
Flight info
| Callsign | BLADE21 |
|---|---|
| Flight time | 0h 39m |
| Altitude | 40000 |
| Route | ARBEV DCT ROMOP Y75 SUVIB |
| Aircraft | F35/M-SDE3RV/LB1 |
Departure
| Time | 2026-04-30 19:19 |
|---|---|
| Airport | Tampere-Pirkkala Airport (EFTP) |
Arrival
| Time | 2026-04-30 19:58 |
|---|---|
| Airport | Oulu Airport (EFOU) |
| Time | Latitude | Longitude | Altitude | Speed | Heading |
|---|---|---|---|---|---|
| 2026-04-30 19:02 | 61.41348 | 23.62638 | 384 ft | 0 kts | 114° |
| 2026-04-30 19:10 | 61.41347 | 23.62644 | 384 ft | 0 kts | 112° |
| 2026-04-30 19:11 | 61.41346 | 23.62646 | 384 ft | 2 kts | 121° |
| 2026-04-30 19:11 | 61.41322 | 23.62537 | 385 ft | 10 kts | 342° |
| 2026-04-30 19:11 | 61.41412 | 23.62532 | 383 ft | 14 kts | 349° |
| 2026-04-30 19:12 | 61.41519 | 23.62598 | 384 ft | 20 kts | 24° |
| 2026-04-30 19:12 | 61.41550 | 23.62625 | 383 ft | 22 kts | 24° |
| 2026-04-30 19:13 | 61.41734 | 23.62784 | 373 ft | 18 kts | 26° |
| 2026-04-30 19:13 | 61.41736 | 23.62786 | 373 ft | 18 kts | 25° |
| 2026-04-30 19:14 | 61.41760 | 23.62808 | 373 ft | 18 kts | 23° |
| 2026-04-30 19:14 | 61.41861 | 23.62819 | 369 ft | 14 kts | 326° |
| 2026-04-30 19:14 | 61.41927 | 23.62684 | 369 ft | 9 kts | 268° |
| 2026-04-30 19:14 | 61.41920 | 23.62646 | 368 ft | 0 kts | 245° |
| 2026-04-30 19:18 | 61.41893 | 23.62521 | 369 ft | 67 kts | 245° |
| 2026-04-30 19:19 | 61.41374 | 23.60296 | 620 ft | 239 kts | 243° |
| 2026-04-30 19:19 | 61.40661 | 23.57396 | 1718 ft | 198 kts | 254° |
| 2026-04-30 19:19 | 61.42564 | 23.54459 | 2098 ft | 236 kts | 28° |
| 2026-04-30 19:20 | 61.43385 | 23.57443 | 3042 ft | 256 kts | 69° |
| 2026-04-30 19:20 | 61.43896 | 23.61000 | 3855 ft | 258 kts | 69° |
| 2026-04-30 19:20 | 61.44800 | 23.66940 | 5004 ft | 256 kts | 63° |
| 2026-04-30 19:21 | 61.45582 | 23.70353 | 5731 ft | 260 kts | 59° |
| 2026-04-30 19:21 | 61.46370 | 23.73489 | 6433 ft | 265 kts | 56° |
| 2026-04-30 19:22 | 61.49271 | 23.76852 | 8500 ft | 242 kts | 1° |
| 2026-04-30 19:22 | 61.54051 | 23.72887 | 13753 ft | 262 kts | 341° |
| 2026-04-30 19:23 | 61.61767 | 23.75831 | 24336 ft | 492 kts | 13° |
| 2026-04-30 19:24 | 61.68279 | 23.79944 | 32906 ft | 489 kts | 14° |
| 2026-04-30 19:24 | 61.71602 | 23.82074 | 34694 ft | 510 kts | 14° |
| 2026-04-30 19:24 | 61.78538 | 23.86215 | 35324 ft | 520 kts | 8° |
| 2026-04-30 19:25 | 61.89190 | 23.90708 | 38827 ft | 514 kts | 9° |
| 2026-04-30 19:26 | 61.95729 | 23.93574 | 39761 ft | 484 kts | 10° |
| 2026-04-30 19:26 | 62.02297 | 23.97580 | 39983 ft | 492 kts | 12° |
| 2026-04-30 19:27 | 62.12244 | 24.03056 | 40017 ft | 492 kts | 12° |
| 2026-04-30 19:28 | 62.22188 | 24.08632 | 40014 ft | 492 kts | 12° |
| 2026-04-30 19:29 | 62.35391 | 24.16118 | 40011 ft | 493 kts | 13° |
| 2026-04-30 19:30 | 62.48658 | 24.23736 | 39983 ft | 505 kts | 12° |
| 2026-04-30 19:30 | 62.55345 | 24.27602 | 39987 ft | 471 kts | 12° |
| 2026-04-30 19:31 | 62.61721 | 24.31275 | 40008 ft | 480 kts | 12° |
| 2026-04-30 19:31 | 62.71459 | 24.36953 | 40018 ft | 483 kts | 12° |
| 2026-04-30 19:32 | 62.77950 | 24.40754 | 40013 ft | 483 kts | 12° |
| 2026-04-30 19:32 | 62.84450 | 24.44582 | 40010 ft | 484 kts | 12° |
| 2026-04-30 19:33 | 62.90949 | 24.48425 | 40007 ft | 484 kts | 12° |
| 2026-04-30 19:33 | 62.97450 | 24.52286 | 40003 ft | 484 kts | 12° |
| 2026-04-30 19:34 | 63.03948 | 24.56163 | 40005 ft | 484 kts | 12° |
| 2026-04-30 19:35 | 63.13695 | 24.62013 | 40003 ft | 484 kts | 12° |
| 2026-04-30 19:35 | 63.20150 | 24.65911 | 40010 ft | 484 kts | 12° |
| 2026-04-30 19:36 | 63.26651 | 24.69853 | 39998 ft | 485 kts | 12° |
| 2026-04-30 19:36 | 63.36402 | 24.75802 | 39995 ft | 484 kts | 12° |
| 2026-04-30 19:37 | 63.42853 | 24.79775 | 39976 ft | 449 kts | 12° |
| 2026-04-30 19:37 | 63.45926 | 24.81650 | 39987 ft | 480 kts | 12° |
| 2026-04-30 19:37 | 63.49209 | 24.83672 | 40005 ft | 484 kts | 12° |
| 2026-04-30 19:38 | 63.55692 | 24.87691 | 39999 ft | 484 kts | 12° |
| 2026-04-30 19:38 | 63.62158 | 24.91724 | 39996 ft | 485 kts | 12° |
| 2026-04-30 19:39 | 63.68664 | 24.95787 | 39995 ft | 485 kts | 12° |
| 2026-04-30 19:39 | 63.75158 | 24.99868 | 39988 ft | 477 kts | 12° |
| 2026-04-30 19:40 | 63.78292 | 25.01850 | 39754 ft | 455 kts | 12° |
| 2026-04-30 19:40 | 63.81401 | 25.03820 | 37225 ft | 475 kts | 12° |
| 2026-04-30 19:40 | 63.84573 | 25.05828 | 34881 ft | 467 kts | 12° |
| 2026-04-30 19:40 | 63.87624 | 25.07759 | 33275 ft | 446 kts | 11° |
| 2026-04-30 19:41 | 63.90560 | 25.09648 | 31218 ft | 435 kts | 12° |
| 2026-04-30 19:41 | 63.93453 | 25.11530 | 29207 ft | 425 kts | 11° |
| 2026-04-30 19:41 | 63.96192 | 25.13329 | 28269 ft | 396 kts | 11° |
| 2026-04-30 19:41 | 63.98742 | 25.15051 | 27380 ft | 369 kts | 12° |
| 2026-04-30 19:42 | 64.01108 | 25.16795 | 26536 ft | 344 kts | 11° |
| 2026-04-30 19:42 | 64.03181 | 25.18609 | 25438 ft | 298 kts | 15° |
| 2026-04-30 19:42 | 64.05028 | 25.20396 | 24848 ft | 278 kts | 17° |
| 2026-04-30 19:42 | 64.06730 | 25.22135 | 24312 ft | 256 kts | 17° |
| 2026-04-30 19:43 | 64.08561 | 25.23977 | 24129 ft | 359 kts | 14° |
| 2026-04-30 19:43 | 64.11582 | 25.25949 | 23998 ft | 517 kts | 11° |
| 2026-04-30 19:43 | 64.14836 | 25.27952 | 23952 ft | 477 kts | 12° |
| 2026-04-30 19:44 | 64.21536 | 25.31837 | 23231 ft | 501 kts | 10° |
| 2026-04-30 19:44 | 64.24952 | 25.33595 | 22521 ft | 504 kts | 8° |
| 2026-04-30 19:44 | 64.28344 | 25.35114 | 21810 ft | 504 kts | 7° |
| 2026-04-30 19:44 | 64.31813 | 25.36597 | 21081 ft | 507 kts | 7° |
| 2026-04-30 19:45 | 64.35267 | 25.38359 | 20366 ft | 510 kts | 12° |
| 2026-04-30 19:45 | 64.38456 | 25.40759 | 19557 ft | 457 kts | 15° |
| 2026-04-30 19:45 | 64.41310 | 25.43365 | 18294 ft | 427 kts | 19° |
| 2026-04-30 19:45 | 64.43916 | 25.46224 | 16957 ft | 404 kts | 22° |
| 2026-04-30 19:46 | 64.46311 | 25.49350 | 15844 ft | 387 kts | 26° |
| 2026-04-30 19:46 | 64.48508 | 25.52705 | 14828 ft | 370 kts | 27° |
| 2026-04-30 19:46 | 64.50774 | 25.55097 | 13793 ft | 347 kts | 12° |
| 2026-04-30 19:46 | 64.53088 | 25.56193 | 12628 ft | 334 kts | 4° |
| 2026-04-30 19:47 | 64.55385 | 25.56877 | 11372 ft | 332 kts | 5° |
| 2026-04-30 19:47 | 64.56898 | 25.57342 | 10599 ft | 329 kts | 2° |
| 2026-04-30 19:47 | 64.59942 | 25.57843 | 8999 ft | 326 kts | 2° |
| 2026-04-30 19:47 | 64.62185 | 25.58307 | 7976 ft | 313 kts | 4° |
| 2026-04-30 19:48 | 64.64036 | 25.59041 | 7124 ft | 258 kts | 8° |
| 2026-04-30 19:48 | 64.65759 | 25.59886 | 6764 ft | 249 kts | 12° |
| 2026-04-30 19:48 | 64.67481 | 25.60567 | 6263 ft | 253 kts | 8° |
| 2026-04-30 19:48 | 64.69201 | 25.61263 | 5899 ft | 249 kts | 5° |
| 2026-04-30 19:49 | 64.70926 | 25.61990 | 5255 ft | 249 kts | 10° |
| 2026-04-30 19:49 | 64.74165 | 25.64964 | 4272 ft | 250 kts | 20° |
| 2026-04-30 19:49 | 64.75756 | 25.66414 | 3779 ft | 248 kts | 15° |
| 2026-04-30 19:50 | 64.77423 | 25.67475 | 3481 ft | 246 kts | 12° |
| 2026-04-30 19:50 | 64.79072 | 25.68306 | 3311 ft | 244 kts | 5° |
| 2026-04-30 19:50 | 64.80764 | 25.68521 | 3084 ft | 244 kts | 356° |
| 2026-04-30 19:50 | 64.82392 | 25.67528 | 2904 ft | 244 kts | 333° |
| 2026-04-30 19:51 | 64.83871 | 25.65739 | 2717 ft | 242 kts | 328° |
| 2026-04-30 19:51 | 64.85241 | 25.63447 | 2416 ft | 246 kts | 318° |
| 2026-04-30 19:51 | 64.86374 | 25.60461 | 2124 ft | 244 kts | 306° |
| 2026-04-30 19:51 | 64.87306 | 25.57146 | 1800 ft | 242 kts | 302° |
| 2026-04-30 19:52 | 64.88202 | 25.53795 | 1485 ft | 242 kts | 302° |
| 2026-04-30 19:52 | 64.89098 | 25.50447 | 1160 ft | 239 kts | 301° |
| 2026-04-30 19:52 | 64.89973 | 25.47113 | 850 ft | 240 kts | 301° |
| 2026-04-30 19:52 | 64.90863 | 25.43751 | 645 ft | 244 kts | 301° |
| 2026-04-30 19:53 | 64.91752 | 25.40362 | 315 ft | 241 kts | 300° |
| 2026-04-30 19:53 | 64.92619 | 25.36969 | 140 ft | 243 kts | 299° |
| 2026-04-30 19:53 | 64.93586 | 25.33214 | 178 ft | 247 kts | 299° |
| 2026-04-30 19:53 | 64.93415 | 25.30856 | 346 ft | 139 kts | 207° |
| 2026-04-30 19:54 | 64.92506 | 25.31785 | 769 ft | 185 kts | 123° |
| 2026-04-30 19:54 | 64.91807 | 25.34327 | 628 ft | 178 kts | 125° |
| 2026-04-30 19:54 | 64.90878 | 25.36034 | 463 ft | 168 kts | 174° |
| 2026-04-30 19:54 | 64.89945 | 25.34863 | 621 ft | 162 kts | 257° |
| 2026-04-30 19:55 | 64.90605 | 25.33488 | 633 ft | 176 kts | 36° |
| 2026-04-30 19:55 | 64.90553 | 25.35986 | 736 ft | 181 kts | 151° |
| 2026-04-30 19:55 | 64.89753 | 25.35014 | 632 ft | 164 kts | 291° |
| 2026-04-30 19:55 | 64.90703 | 25.34828 | 589 ft | 187 kts | 46° |
| 2026-04-30 19:56 | 64.90855 | 25.37547 | 765 ft | 187 kts | 105° |
| 2026-04-30 19:56 | 64.90225 | 25.40073 | 701 ft | 182 kts | 130° |
| 2026-04-30 19:56 | 64.89503 | 25.42427 | 688 ft | 175 kts | 110° |
| 2026-04-30 19:56 | 64.89927 | 25.44568 | 809 ft | 172 kts | 7° |
| 2026-04-30 19:57 | 64.90885 | 25.43689 | 617 ft | 148 kts | 303° |
| 2026-04-30 19:57 | 64.91426 | 25.41632 | 451 ft | 148 kts | 300° |
| 2026-04-30 19:57 | 64.91951 | 25.39604 | 254 ft | 149 kts | 299° |
| 2026-04-30 19:57 | 64.92462 | 25.37589 | 69 ft | 143 kts | 299° |
| 2026-04-30 19:58 | 64.92884 | 25.35924 | 50 ft | 89 kts | 298° |
| 2026-04-30 19:58 | 64.93077 | 25.35142 | 52 ft | 43 kts | 301° |
| 2026-04-30 19:58 | 64.93223 | 25.34600 | 50 ft | 36 kts | 304° |
| 2026-04-30 19:58 | 64.93337 | 25.34118 | 50 ft | 32 kts | 300° |
| 2026-04-30 19:59 | 64.93305 | 25.33820 | 49 ft | 19 kts | 214° |
| 2026-04-30 19:59 | 64.93197 | 25.33753 | 48 ft | 10 kts | 188° |
| 2026-04-30 19:59 | 64.93154 | 25.33670 | 48 ft | 0 kts | 279° |